createdAt,value
2022-09-15T00:00:10.280Z,17.59
2022-09-15T00:02:36.776Z,17.61
2022-09-15T00:05:03.337Z,17.63
2022-09-15T00:07:31.266Z,17.57
2022-09-15T00:09:57.673Z,17.56
2022-09-15T00:12:24.086Z,17.57
2022-09-15T00:14:50.515Z,17.60
2022-09-15T00:17:16.987Z,17.56
2022-09-15T00:19:43.397Z,17.53
2022-09-15T00:22:09.810Z,17.50
2022-09-15T00:24:36.352Z,17.45
2022-09-15T00:27:03.287Z,17.46
2022-09-15T00:29:29.994Z,17.51
2022-09-15T00:31:56.423Z,17.50
2022-09-15T00:34:22.885Z,17.51
2022-09-15T00:36:49.439Z,17.52
2022-09-15T00:39:15.863Z,17.53
2022-09-15T00:41:42.559Z,17.52
2022-09-15T00:44:36.763Z,17.56
2022-09-15T00:47:18.706Z,17.57
2022-09-15T00:49:47.656Z,17.55
2022-09-15T00:52:47.280Z,17.58
2022-09-15T00:55:23.956Z,17.64
2022-09-15T00:58:18.888Z,17.67
2022-09-15T01:00:50.612Z,17.69
2022-09-15T01:03:18.296Z,17.69
2022-09-15T01:05:53.980Z,17.69
2022-09-15T01:08:50.039Z,17.67
2022-09-15T01:11:16.977Z,17.64
2022-09-15T01:13:44.334Z,17.65
2022-09-15T01:16:27.440Z,17.66
2022-09-15T01:19:04.416Z,17.65
2022-09-15T01:21:54.592Z,17.63
2022-09-15T01:24:38.195Z,17.65
2022-09-15T01:27:41.690Z,17.65
2022-09-15T01:30:10.171Z,17.67
2022-09-15T01:33:03.894Z,17.70
2022-09-15T01:35:34.211Z,17.70
2022-09-15T01:38:29.827Z,17.72
2022-09-15T01:41:05.768Z,17.74
2022-09-15T01:43:35.603Z,17.74
2022-09-15T01:46:02.814Z,17.74
2022-09-15T01:48:30.091Z,17.77
2022-09-15T01:51:00.077Z,17.79
2022-09-15T01:53:27.067Z,17.78
2022-09-15T01:55:57.942Z,17.80
2022-09-15T01:58:24.493Z,17.81
2022-09-15T02:00:59.923Z,17.76
2022-09-15T02:03:55.471Z,17.75
2022-09-15T02:06:29.604Z,17.73
2022-09-15T02:09:01.341Z,17.71
2022-09-15T02:11:28.846Z,17.68
2022-09-15T02:14:00.567Z,17.62
2022-09-15T02:16:29.977Z,17.58
2022-09-15T02:19:09.615Z,17.52
2022-09-15T02:22:02.756Z,17.49
2022-09-15T02:24:32.591Z,17.48
2022-09-15T02:26:59.582Z,17.44
2022-09-15T02:29:27.338Z,17.43
2022-09-15T02:31:55.513Z,17.40
2022-09-15T02:34:29.378Z,17.40
2022-09-15T02:36:56.604Z,17.34
2022-09-15T02:39:27.193Z,17.33
2022-09-15T02:41:53.672Z,17.31
2022-09-15T02:44:20.077Z,17.29
2022-09-15T02:46:46.543Z,17.28
2022-09-15T02:49:14.116Z,17.27
2022-09-15T02:51:40.648Z,17.28
2022-09-15T02:54:07.074Z,17.28
2022-09-15T02:56:33.884Z,17.27
2022-09-15T02:59:00.288Z,17.24
2022-09-15T03:01:33.686Z,17.19
2022-09-15T03:04:01.875Z,17.20
2022-09-15T03:06:34.564Z,17.20
2022-09-15T03:09:05.317Z,17.20
2022-09-15T03:11:32.596Z,17.18
2022-09-15T03:14:01.325Z,17.18
2022-09-15T03:16:29.076Z,17.20
2022-09-15T03:18:58.617Z,17.19
2022-09-15T03:21:26.281Z,17.17
2022-09-15T03:23:52.699Z,17.08
2022-09-15T03:26:19.133Z,17.07
2022-09-15T03:28:45.551Z,17.06
2022-09-15T03:31:12.192Z,17.00
2022-09-15T03:33:38.707Z,16.98
2022-09-15T03:36:06.825Z,17.00
2022-09-15T03:38:33.308Z,16.98
2022-09-15T03:41:08.259Z,16.99
2022-09-15T03:43:35.375Z,17.00
2022-09-15T03:46:02.140Z,17.00
2022-09-15T03:48:31.489Z,17.01
2022-09-15T03:50:57.822Z,17.00
2022-09-15T03:53:24.642Z,17.02
2022-09-15T03:55:51.295Z,17.01
2022-09-15T03:58:18.491Z,16.97
2022-09-15T04:00:46.425Z,16.97
2022-09-15T04:03:13.545Z,16.98
2022-09-15T04:05:40.526Z,16.97
2022-09-15T04:08:06.954Z,17.00
2022-09-15T04:10:33.565Z,17.06
2022-09-15T04:12:59.982Z,17.08
2022-09-15T04:15:26.405Z,17.07
2022-09-15T04:17:52.813Z,17.05
2022-09-15T04:20:19.246Z,17.01
2022-09-15T04:22:45.745Z,16.95
2022-09-15T04:25:12.186Z,16.96
2022-09-15T04:27:38.668Z,16.95
2022-09-15T04:30:06.468Z,16.96
2022-09-15T04:32:33.155Z,16.99
2022-09-15T04:34:59.557Z,17.02
2022-09-15T04:37:25.965Z,17.02
2022-09-15T04:39:52.455Z,17.02
2022-09-15T04:42:21.935Z,17.00
2022-09-15T04:44:48.341Z,17.01
2022-09-15T04:47:14.912Z,16.99
2022-09-15T04:49:41.325Z,16.94
2022-09-15T04:52:09.941Z,16.82
2022-09-15T04:54:36.706Z,16.77
2022-09-15T04:57:03.145Z,16.72
2022-09-15T04:59:29.572Z,16.67
2022-09-15T05:01:56.108Z,16.67
2022-09-15T05:04:22.598Z,16.63
2022-09-15T05:06:48.990Z,16.52
2022-09-15T05:09:15.403Z,16.38
2022-09-15T05:11:41.828Z,16.28
2022-09-15T05:14:09.540Z,16.24
2022-09-15T05:16:36.096Z,16.26
2022-09-15T05:19:03.164Z,16.30
2022-09-15T05:21:29.651Z,16.29
2022-09-15T05:23:56.179Z,16.29
2022-09-15T05:26:29.308Z,16.32
2022-09-15T05:28:56.915Z,16.32
2022-09-15T05:31:26.676Z,16.35
2022-09-15T05:33:53.551Z,16.44
2022-09-15T05:36:24.880Z,16.46
2022-09-15T05:38:52.990Z,16.44
2022-09-15T05:41:19.811Z,16.44
2022-09-15T05:43:47.173Z,16.47
2022-09-15T05:46:14.104Z,16.52
2022-09-15T05:48:40.636Z,16.56
2022-09-15T05:51:07.762Z,16.49
2022-09-15T05:53:35.238Z,16.28
2022-09-15T05:56:05.078Z,16.04
2022-09-15T05:58:32.015Z,15.92
2022-09-15T06:01:11.331Z,15.83
2022-09-15T06:03:37.727Z,15.76
2022-09-15T06:06:06.130Z,15.72
2022-09-15T06:08:37.747Z,15.70
2022-09-15T06:11:15.874Z,15.65
2022-09-15T06:13:42.661Z,15.65
2022-09-15T06:16:11.882Z,15.64
2022-09-15T06:18:38.998Z,15.63
2022-09-15T06:21:13.926Z,15.62
2022-09-15T06:23:40.707Z,15.58
2022-09-15T06:26:15.244Z,15.53
2022-09-15T06:28:42.439Z,15.46
2022-09-15T06:31:13.378Z,15.40
2022-09-15T06:33:44.518Z,15.40
2022-09-15T06:36:15.095Z,15.39
2022-09-15T06:38:42.806Z,15.41
2022-09-15T06:41:09.826Z,15.44
2022-09-15T06:43:36.384Z,15.50
2022-09-15T06:46:12.319Z,15.51
2022-09-15T06:48:39.544Z,15.52
2022-09-15T06:51:07.338Z,15.48
2022-09-15T06:53:35.426Z,15.54
2022-09-15T06:56:07.317Z,15.61
2022-09-15T06:58:38.754Z,15.66
2022-09-15T07:01:12.196Z,15.65
2022-09-15T07:03:40.449Z,15.68
2022-09-15T07:06:07.578Z,15.72
2022-09-15T07:08:34.596Z,15.76
2022-09-15T07:11:00.997Z,15.79
2022-09-15T07:13:27.460Z,15.83
2022-09-15T07:15:56.438Z,15.89
2022-09-15T07:18:23.392Z,15.96
2022-09-15T07:20:50.428Z,15.99
2022-09-15T07:23:18.215Z,16.04
2022-09-15T07:25:45.141Z,16.12
2022-09-15T07:28:12.268Z,16.15
2022-09-15T07:30:39.212Z,16.21
2022-09-15T07:33:06.749Z,16.22
2022-09-15T07:35:33.296Z,16.23
2022-09-15T07:38:00.879Z,16.28
2022-09-15T07:40:28.880Z,16.33
2022-09-15T07:42:55.900Z,16.40
2022-09-15T07:45:22.399Z,16.44
2022-09-15T07:47:48.886Z,16.51
2022-09-15T07:50:15.307Z,16.57
2022-09-15T07:52:41.770Z,16.58
2022-09-15T07:55:09.424Z,16.50
2022-09-15T07:57:35.860Z,16.53
2022-09-15T08:00:02.695Z,16.52
2022-09-15T08:02:38.406Z,16.43
2022-09-15T08:05:05.033Z,16.41
2022-09-15T08:07:31.436Z,16.42
2022-09-15T08:09:57.851Z,16.51
2022-09-15T08:12:24.252Z,16.60
2022-09-15T08:14:50.680Z,16.60
2022-09-15T08:17:17.112Z,16.66
2022-09-15T08:19:43.653Z,16.51
2022-09-15T08:22:10.066Z,16.52
2022-09-15T08:24:37.309Z,16.55
2022-09-15T08:27:03.847Z,16.50
2022-09-15T08:29:30.349Z,16.38
2022-09-15T08:31:56.823Z,16.28
2022-09-15T08:34:23.614Z,16.25
2022-09-15T08:36:50.035Z,16.32
2022-09-15T08:39:16.414Z,16.43
2022-09-15T08:41:47.086Z,16.54
2022-09-15T08:44:44.275Z,16.58
2022-09-15T08:47:20.984Z,16.70
2022-09-15T08:50:05.131Z,16.78
2022-09-15T08:52:44.101Z,16.82
2022-09-15T08:55:18.199Z,16.69
2022-09-15T08:57:45.017Z,16.63
2022-09-15T09:00:16.340Z,16.54
2022-09-15T09:03:04.658Z,16.42
2022-09-15T09:05:50.570Z,16.54
2022-09-15T09:09:02.174Z,16.52
2022-09-15T09:11:56.929Z,16.49
2022-09-15T09:14:42.676Z,16.55
2022-09-15T09:17:37.327Z,16.71
2022-09-15T09:20:32.180Z,16.83
2022-09-15T09:23:00.085Z,16.85
2022-09-15T09:25:28.213Z,16.92
2022-09-15T09:27:58.296Z,16.93
2022-09-15T09:30:27.548Z,16.94
2022-09-15T09:32:53.981Z,16.99
2022-09-15T09:35:28.670Z,16.96
2022-09-15T09:37:55.564Z,16.92
2022-09-15T09:40:22.659Z,16.85
2022-09-15T09:42:49.211Z,16.87
2022-09-15T09:45:18.300Z,16.93
2022-09-15T09:47:46.214Z,16.91
2022-09-15T09:50:51.125Z,16.91
2022-09-15T09:53:24.135Z,16.92
2022-09-15T09:55:50.585Z,16.96
2022-09-15T09:58:22.540Z,16.98
2022-09-15T10:00:49.297Z,17.04
2022-09-15T10:03:17.578Z,17.05
2022-09-15T10:05:44.801Z,17.02
2022-09-15T10:08:19.207Z,16.97
2022-09-15T10:11:00.528Z,16.94
2022-09-15T10:13:27.056Z,16.94
2022-09-15T10:15:55.589Z,16.98
2022-09-15T10:18:28.170Z,16.98
2022-09-15T10:20:54.756Z,16.93
2022-09-15T10:23:21.653Z,16.94
2022-09-15T10:25:59.070Z,17.01
2022-09-15T10:28:27.237Z,16.98
2022-09-15T10:31:13.336Z,17.01
2022-09-15T10:33:44.922Z,17.03
2022-09-15T10:36:17.236Z,17.02
2022-09-15T10:38:46.343Z,17.03
2022-09-15T10:41:25.983Z,17.07
2022-09-15T10:44:18.070Z,17.10
2022-09-15T10:47:01.028Z,17.12
2022-09-15T10:49:57.122Z,17.14
2022-09-15T10:52:45.431Z,17.22
2022-09-15T10:55:51.648Z,17.24
2022-09-15T10:58:48.978Z,17.32
2022-09-15T11:01:30.405Z,17.46
2022-09-15T11:04:27.605Z,17.50
2022-09-15T11:07:24.569Z,17.53
2022-09-15T11:10:00.583Z,17.56
2022-09-15T11:12:44.976Z,17.61
2022-09-15T11:15:29.474Z,17.60
2022-09-15T11:18:16.737Z,17.52
2022-09-15T11:21:10.971Z,17.57
2022-09-15T11:23:45.888Z,17.74
2022-09-15T11:26:15.997Z,17.81
2022-09-15T11:28:49.119Z,17.90
2022-09-15T11:31:20.737Z,18.03
2022-09-15T11:33:55.661Z,18.10
2022-09-15T11:36:38.127Z,18.16
2022-09-15T11:39:10.609Z,18.25
2022-09-15T11:41:45.696Z,18.38
2022-09-15T11:44:29.012Z,18.45
2022-09-15T11:47:04.535Z,18.49
2022-09-15T11:49:51.104Z,18.55
2022-09-15T11:52:37.757Z,18.60
2022-09-15T11:55:15.628Z,18.68
2022-09-15T11:57:47.841Z,18.74
2022-09-15T12:00:15.109Z,18.91
2022-09-15T12:03:03.368Z,18.99
2022-09-15T12:05:33.590Z,19.02
2022-09-15T12:08:07.022Z,19.02
2022-09-15T12:10:41.751Z,18.93
2022-09-15T12:13:17.093Z,18.88
2022-09-15T12:15:44.389Z,18.73
2022-09-15T12:18:40.129Z,18.60
2022-09-15T12:21:14.920Z,18.47
2022-09-15T12:24:03.203Z,18.41
2022-09-15T12:26:33.066Z,18.38
2022-09-15T12:29:02.449Z,18.37
2022-09-15T12:31:30.213Z,18.34
2022-09-15T12:34:16.737Z,18.38
2022-09-15T12:36:47.826Z,18.37
2022-09-15T12:39:36.216Z,18.39
2022-09-15T12:42:10.853Z,18.42
2022-09-15T12:44:42.047Z,18.42
2022-09-15T12:47:20.416Z,18.48
2022-09-15T12:49:48.379Z,18.59
2022-09-15T12:52:15.376Z,18.70
2022-09-15T12:54:43.286Z,18.77
2022-09-15T12:57:21.364Z,18.76
2022-09-15T12:59:47.796Z,18.81
2022-09-15T13:02:50.049Z,18.86
2022-09-15T13:05:41.661Z,18.92
2022-09-15T13:08:31.115Z,18.96
2022-09-15T13:11:07.885Z,19.04
2022-09-15T13:14:08.482Z,19.11
2022-09-15T13:16:41.037Z,19.18
2022-09-15T13:19:12.258Z,19.28
2022-09-15T13:21:41.162Z,19.38
2022-09-15T13:24:15.951Z,19.46
2022-09-15T13:26:44.615Z,19.48
2022-09-15T13:29:15.187Z,19.41
2022-09-15T13:31:53.173Z,19.39
2022-09-15T13:35:07.200Z,19.25
2022-09-15T13:41:09.262Z,19.20
2022-09-15T13:43:46.144Z,19.30
2022-09-15T13:46:22.899Z,19.34
2022-09-15T13:49:14.220Z,19.35
2022-09-15T13:51:43.897Z,19.16
2022-09-15T13:54:16.910Z,19.03
2022-09-15T13:56:43.906Z,18.92
2022-09-15T13:59:19.121Z,18.87
2022-09-15T14:01:45.988Z,18.82
2022-09-15T14:04:16.512Z,18.74
2022-09-15T14:06:44.879Z,18.69
2022-09-15T14:09:17.450Z,18.65
2022-09-15T14:11:47.935Z,18.72
2022-09-15T14:14:46.997Z,18.71
2022-09-15T14:17:20.878Z,18.73
2022-09-15T14:19:52.535Z,18.82
2022-09-15T14:22:32.082Z,18.84
2022-09-15T14:25:00.662Z,18.86
2022-09-15T14:27:29.494Z,18.87
2022-09-15T14:29:57.732Z,18.90
2022-09-15T14:32:25.972Z,18.93
2022-09-15T14:34:52.919Z,18.97
2022-09-15T14:37:28.428Z,19.02
2022-09-15T14:39:57.080Z,19.13
2022-09-15T14:42:29.376Z,19.31
2022-09-15T14:47:43.550Z,19.71
2022-09-15T14:50:21.018Z,19.69
2022-09-15T14:52:49.472Z,19.64
2022-09-15T14:55:23.262Z,19.63
2022-09-15T14:58:26.904Z,19.57
2022-09-15T15:00:58.177Z,19.46
2022-09-15T15:03:33.275Z,19.42
2022-09-15T15:06:28.345Z,19.25
2022-09-15T15:09:03.878Z,19.21
2022-09-15T15:11:31.448Z,19.21
2022-09-15T15:13:57.954Z,19.22
2022-09-15T15:16:29.905Z,19.21
2022-09-15T15:18:57.179Z,19.16
2022-09-15T15:21:43.499Z,19.13
2022-09-15T15:24:17.680Z,19.11
2022-09-15T15:26:46.164Z,19.09
2022-09-15T15:29:43.867Z,19.01
2022-09-15T15:32:20.016Z,18.97
2022-09-15T15:34:59.904Z,18.93
2022-09-15T15:37:33.615Z,18.86
2022-09-15T15:40:04.134Z,18.83
2022-09-15T15:42:30.741Z,18.77
2022-09-15T15:45:09.418Z,18.72
2022-09-15T15:47:37.023Z,18.72
2022-09-15T15:50:21.118Z,18.70
2022-09-15T15:52:48.897Z,18.73
2022-09-15T15:55:20.032Z,18.77
2022-09-15T15:57:48.096Z,18.80
2022-09-15T16:00:23.242Z,18.78
2022-09-15T16:02:51.154Z,18.75
2022-09-15T16:05:18.685Z,18.76
2022-09-15T16:07:46.623Z,18.72
2022-09-15T16:10:17.996Z,18.75
2022-09-15T16:12:44.514Z,18.73
2022-09-15T16:15:13.370Z,18.69
2022-09-15T16:17:44.329Z,18.67
2022-09-15T16:20:15.663Z,18.65
2022-09-15T16:22:42.445Z,18.63
2022-09-15T16:25:26.807Z,18.59
2022-09-15T16:27:53.203Z,18.57
2022-09-15T16:30:19.753Z,18.51
2022-09-15T16:32:46.156Z,18.46
2022-09-15T16:35:44.132Z,18.46
2022-09-15T16:38:10.549Z,18.46
2022-09-15T16:40:37.438Z,18.47
2022-09-15T16:43:04.757Z,18.53
2022-09-15T16:45:39.813Z,18.58
2022-09-15T16:48:08.160Z,18.53
2022-09-15T16:50:35.017Z,18.49
2022-09-15T16:53:01.586Z,18.51
2022-09-15T16:55:38.758Z,18.48
2022-09-15T16:58:06.046Z,18.48
2022-09-15T17:00:35.620Z,18.44
2022-09-15T17:03:02.664Z,18.43
2022-09-15T17:05:42.222Z,18.39
2022-09-15T17:08:11.889Z,18.39
2022-09-15T17:10:38.957Z,18.34
2022-09-15T17:13:05.942Z,18.30
2022-09-15T17:15:37.738Z,18.28
2022-09-15T17:18:05.542Z,18.26
2022-09-15T17:20:38.605Z,18.22
2022-09-15T17:23:23.483Z,18.18
2022-09-15T17:25:59.075Z,18.14
2022-09-15T17:28:30.961Z,18.10
2022-09-15T17:31:02.012Z,18.05
2022-09-15T17:33:29.549Z,17.99
2022-09-15T17:35:55.983Z,17.94
2022-09-15T17:38:23.028Z,17.88
2022-09-15T17:40:49.921Z,17.85
2022-09-15T17:43:22.031Z,17.82
2022-09-15T17:45:49.404Z,17.78
2022-09-15T17:48:16.355Z,17.75
2022-09-15T17:50:43.517Z,17.72
2022-09-15T17:53:15.334Z,17.65
2022-09-15T17:55:42.109Z,17.62
2022-09-15T17:58:08.628Z,17.56
2022-09-15T18:00:36.965Z,17.50
2022-09-15T18:03:10.681Z,17.47
2022-09-15T18:05:37.808Z,17.49
2022-09-15T18:08:05.821Z,17.47
2022-09-15T18:10:34.348Z,17.45
2022-09-15T18:13:01.767Z,17.42
2022-09-15T18:15:30.078Z,17.38
2022-09-15T18:18:03.783Z,17.34
2022-09-15T18:20:31.986Z,17.32
2022-09-15T18:22:58.953Z,17.28
2022-09-15T18:25:34.818Z,17.26
2022-09-15T18:28:01.983Z,17.23
2022-09-15T18:30:31.366Z,17.17
2022-09-15T18:32:58.148Z,17.16
2022-09-15T18:35:25.160Z,17.15
2022-09-15T18:37:59.349Z,17.14
2022-09-15T18:40:27.085Z,17.15
2022-09-15T18:42:54.048Z,17.12
2022-09-15T18:45:21.791Z,17.09
2022-09-15T18:47:49.356Z,17.10
2022-09-15T18:50:17.448Z,17.12
2022-09-15T18:52:44.451Z,17.13
2022-09-15T18:55:18.018Z,17.11
2022-09-15T18:57:44.840Z,17.11
2022-09-15T19:00:14.492Z,17.09
2022-09-15T19:02:40.990Z,17.06
2022-09-15T19:05:08.075Z,17.07
2022-09-15T19:07:34.513Z,17.06
2022-09-15T19:10:01.609Z,16.97
2022-09-15T19:12:28.356Z,16.94
2022-09-15T19:14:54.767Z,16.89
2022-09-15T19:17:21.529Z,16.87
2022-09-15T19:19:48.112Z,16.91
2022-09-15T19:22:14.725Z,16.92
2022-09-15T19:24:41.150Z,16.92
2022-09-15T19:27:08.912Z,16.93
2022-09-15T19:29:36.179Z,16.91
2022-09-15T19:32:08.789Z,16.95
2022-09-15T19:34:35.977Z,16.97
2022-09-15T19:37:04.871Z,16.98
2022-09-15T19:39:34.762Z,16.91
2022-09-15T19:42:01.173Z,16.87
2022-09-15T19:44:27.617Z,16.86
2022-09-15T19:46:54.077Z,16.84
2022-09-15T19:49:21.817Z,16.78
2022-09-15T19:51:54.898Z,16.71
2022-09-15T19:54:27.001Z,16.68
2022-09-15T19:56:53.560Z,16.63
2022-09-15T19:59:20.467Z,16.66
2022-09-15T20:01:47.461Z,16.73
2022-09-15T20:04:14.709Z,16.76
2022-09-15T20:06:41.523Z,16.74
2022-09-15T20:09:08.725Z,16.79
2022-09-15T20:11:35.872Z,16.83
2022-09-15T20:14:02.843Z,16.88
2022-09-15T20:16:29.785Z,16.90
2022-09-15T20:18:56.578Z,16.91
2022-09-15T20:21:39.085Z,16.86
2022-09-15T20:24:12.372Z,16.84
2022-09-15T20:26:38.835Z,16.85
2022-09-15T20:29:05.294Z,16.85
2022-09-15T20:31:34.563Z,16.85
2022-09-15T20:34:01.786Z,16.84
2022-09-15T20:36:33.025Z,16.83
2022-09-15T20:39:00.894Z,16.77
2022-09-15T20:41:28.324Z,16.71
2022-09-15T20:43:55.137Z,16.72
2022-09-15T20:46:22.686Z,16.73
2022-09-15T20:48:50.978Z,16.71
2022-09-15T20:51:25.464Z,16.65
2022-09-15T20:53:53.574Z,16.64
2022-09-15T20:56:24.587Z,16.61
2022-09-15T20:58:55.163Z,16.57
2022-09-15T21:01:31.556Z,16.53
2022-09-15T21:03:58.087Z,16.51
2022-09-15T21:06:26.452Z,16.49
2022-09-15T21:08:53.863Z,16.46
2022-09-15T21:11:21.259Z,16.44
2022-09-15T21:13:48.597Z,16.43
2022-09-15T21:16:20.403Z,16.39
2022-09-15T21:18:47.275Z,16.34
2022-09-15T21:21:15.749Z,16.33
2022-09-15T21:23:44.527Z,16.25
2022-09-15T21:26:13.518Z,16.18
2022-09-15T21:28:40.187Z,16.12
2022-09-15T21:31:10.255Z,16.09
2022-09-15T21:33:37.383Z,16.04
2022-09-15T21:36:06.152Z,15.99
2022-09-15T21:38:37.336Z,15.95
2022-09-15T21:41:04.488Z,15.92
2022-09-15T21:43:32.725Z,15.89
2022-09-15T21:45:59.167Z,15.84
2022-09-15T21:48:27.133Z,15.77
2022-09-15T21:50:54.122Z,15.68
2022-09-15T21:53:20.970Z,15.61
2022-09-15T21:55:50.340Z,15.55
2022-09-15T21:58:20.123Z,15.50
2022-09-15T22:00:47.706Z,15.49
2022-09-15T22:03:24.752Z,15.48
2022-09-15T22:05:51.737Z,15.48
2022-09-15T22:08:18.239Z,15.49
2022-09-15T22:10:44.782Z,15.49
2022-09-15T22:13:11.848Z,15.49
2022-09-15T22:15:38.359Z,15.48
2022-09-15T22:18:05.111Z,15.47
2022-09-15T22:20:31.875Z,15.46
2022-09-15T22:23:01.328Z,15.44
2022-09-15T22:25:28.878Z,15.44
2022-09-15T22:27:55.355Z,15.47
2022-09-15T22:30:21.788Z,15.50
2022-09-15T22:32:48.206Z,15.51
2022-09-15T22:35:14.687Z,15.52
2022-09-15T22:37:41.118Z,15.54
2022-09-15T22:40:08.094Z,15.56
2022-09-15T22:42:34.670Z,15.57
2022-09-15T22:45:01.075Z,15.57
2022-09-15T22:47:27.480Z,15.53
2022-09-15T22:49:53.973Z,15.51
2022-09-15T22:52:21.097Z,15.54
2022-09-15T22:54:47.514Z,15.52
2022-09-15T22:57:13.930Z,15.51
2022-09-15T22:59:40.330Z,15.49
2022-09-15T23:02:06.777Z,15.48
2022-09-15T23:04:33.208Z,15.50
2022-09-15T23:06:59.631Z,15.48
2022-09-15T23:09:26.330Z,15.49
2022-09-15T23:11:52.771Z,15.51
2022-09-15T23:14:19.177Z,15.48
2022-09-15T23:16:45.622Z,15.50
2022-09-15T23:19:13.313Z,15.47
2022-09-15T23:21:40.087Z,15.46
2022-09-15T23:24:06.748Z,15.43
2022-09-15T23:26:33.226Z,15.42
2022-09-15T23:28:59.664Z,15.41
2022-09-15T23:31:26.124Z,15.41
2022-09-15T23:33:52.576Z,15.42
2022-09-15T23:36:19.465Z,15.45
2022-09-15T23:38:46.648Z,15.45
2022-09-15T23:41:14.208Z,15.45
2022-09-15T23:43:41.043Z,15.40
2022-09-15T23:46:07.899Z,15.39
2022-09-15T23:48:34.617Z,15.40
2022-09-15T23:51:01.454Z,15.41
2022-09-15T23:53:28.612Z,15.44
2022-09-15T23:55:57.112Z,15.38
2022-09-15T23:58:23.533Z,15.39
